Time;durP1;ratioP1;P1;durP2;ratioP2;P2;SDS_P1;SDS_P2;PMS_P1;PMS_P2;Temp;Humidity;BMP_temperature;BMP_pressure;BME280_temperature;BME280_humidity;BME280_pressure;Samples;Min_cycle;Max_cycle;Signal;HPM_P1;HPM_P2
2022/01/12 00:00:25;;;;;;;0.57;0.57;;;-3.50;95.80;;;;;;4994608;28;20408;-69
2022/01/12 00:02:51;;;;;;;0.68;0.68;;;-3.50;96.00;;;;;;4994499;28;20274;-69
2022/01/12 00:05:18;;;;;;;0.70;0.70;;;-3.40;96.20;;;;;;4994605;28;20210;-69
2022/01/12 00:07:46;;;;;;;0.63;0.63;;;-3.50;96.10;;;;;;4994229;28;20203;-69
2022/01/12 00:10:11;;;;;;;0.70;0.70;;;-3.50;95.80;;;;;;4993313;28;20177;-70
2022/01/12 00:12:37;;;;;;;0.60;0.60;;;-3.60;96.00;;;;;;4994544;28;20180;-69
2022/01/12 00:15:03;;;;;;;0.60;0.60;;;-3.50;96.30;;;;;;4994352;28;20634;-70
2022/01/12 00:17:28;;;;;;;0.67;0.67;;;-3.50;96.10;;;;;;4994159;28;20235;-69
2022/01/12 00:19:54;;;;;;;0.57;0.57;;;-3.50;95.80;;;;;;4994395;28;20495;-69
2022/01/12 00:22:20;;;;;;;0.80;0.80;;;-3.60;95.40;;;;;;4994405;28;20243;-69
2022/01/12 00:25:11;;;;;;;0.57;0.57;;;-3.60;95.60;;;;;;4994366;28;20183;-69
2022/01/12 00:33:22;;;;;;;0.68;0.68;;;-3.60;96.00;;;;;;4994675;28;20284;-69
2022/01/12 00:35:51;;;;;;;0.70;0.70;;;-3.80;95.80;;;;;;4994078;28;20203;-69
2022/01/12 00:38:19;;;;;;;0.45;0.45;;;-3.80;95.60;;;;;;4994447;28;20182;-69
2022/01/12 00:40:48;;;;;;;0.50;0.50;;;-4.00;96.10;;;;;;4994305;28;20195;-69
2022/01/12 00:43:16;;;;;;;0.55;0.55;;;-3.90;97.00;;;;;;4993331;28;20687;-69
2022/01/12 00:45:43;;;;;;;0.52;0.52;;;-3.80;96.70;;;;;;4993946;28;20591;-69
2022/01/12 00:48:09;;;;;;;0.50;0.50;;;-3.80;96.20;;;;;;4994096;28;20188;-69
2022/01/12 00:50:35;;;;;;;0.88;0.88;;;-3.80;96.20;;;;;;4994209;28;20180;-69
2022/01/12 00:53:03;;;;;;;0.70;0.70;;;-3.80;96.30;;;;;;4994019;28;20176;-69
2022/01/12 00:55:32;;;;;;;0.70;0.70;;;-3.80;96.40;;;;;;4993887;28;20173;-70
2022/01/12 00:57:58;;;;;;;0.55;0.55;;;-3.70;96.50;;;;;;4993819;28;20207;-69
2022/01/12 01:00:26;;;;;;;0.50;0.50;;;-3.90;95.90;;;;;;4994065;28;20177;-69
2022/01/12 01:02:53;;;;;;;0.60;0.60;;;-3.90;96.20;;;;;;4993830;28;20466;-69
2022/01/12 01:05:23;;;;;;;0.63;0.63;;;-3.80;96.20;;;;;;4993855;28;20166;-69
2022/01/12 01:07:50;;;;;;;0.70;0.70;;;-3.80;96.30;;;;;;4992577;28;20557;-69
2022/01/12 01:10:27;;;;;;;0.55;0.55;;;-3.80;96.10;;;;;;4994023;28;20203;-70
2022/01/12 01:12:53;;;;;;;0.70;0.70;;;-3.90;95.70;;;;;;4994023;28;20175;-69
2022/01/12 01:15:28;;;;;;;0.50;0.50;;;-3.90;95.70;;;;;;4993735;28;20188;-69
2022/01/12 01:26:06;;;;;;;0.65;0.65;;;-4.00;96.00;;;;;;4993679;28;20216;-69
2022/01/12 01:28:31;;;;;;;0.60;0.60;;;-4.00;96.40;;;;;;4993675;28;20165;-69
2022/01/12 01:30:57;;;;;;;0.50;0.50;;;-3.90;96.40;;;;;;4992448;28;20654;-69
2022/01/12 01:33:26;;;;;;;0.70;0.70;;;-4.00;96.00;;;;;;4993757;28;20180;-69
2022/01/12 01:35:56;;;;;;;0.70;0.70;;;-3.90;95.90;;;;;;4993282;28;20239;-69
2022/01/12 01:38:22;;;;;;;0.50;0.50;;;-3.90;96.00;;;;;;4993630;28;20160;-69
2022/01/12 01:40:48;;;;;;;0.70;0.70;;;-3.80;96.30;;;;;;4993770;28;20528;-70
2022/01/12 01:43:40;;;;;;;0.67;0.67;;;-3.80;96.20;;;;;;4993559;28;20987;-70
2022/01/12 01:54:18;;;;;;;0.50;0.50;;;-3.80;95.50;;;;;;4995258;28;20562;-70
2022/01/12 01:56:44;;;;;;;0.70;0.70;;;-3.90;95.60;;;;;;4996743;28;20188;-69
2022/01/12 01:59:10;;;;;;;0.80;0.80;;;-3.90;95.60;;;;;;4996853;28;20242;-69
2022/01/12 02:01:36;;;;;;;0.87;0.87;;;-3.90;96.10;;;;;;4996867;28;20268;-69
2022/01/12 02:04:03;;;;;;;0.70;0.70;;;-3.80;96.30;;;;;;4995197;28;20871;-69
2022/01/12 02:06:29;;;;;;;0.77;0.77;;;-3.90;95.90;;;;;;4996501;28;20216;-69
2022/01/12 02:08:55;;;;;;;0.50;0.50;;;-3.90;95.60;;;;;;4996639;28;20211;-70
2022/01/12 02:11:29;;;;;;;0.88;0.88;;;-3.90;95.50;;;;;;4996780;28;20430;-69
2022/01/12 02:13:55;;;;;;;0.63;0.63;;;-4.00;95.30;;;;;;4996850;28;20175;-70
2022/01/12 02:16:29;;;;;;;0.60;0.60;;;-4.00;95.20;;;;;;4996259;28;20196;-69
2022/01/12 02:19:29;;;;;;;0.73;0.73;;;-4.00;95.20;;;;;;4996681;28;20242;-69
2022/01/12 02:35:47;;;;;;;0.60;0.60;;;-4.00;95.30;;;;;;4996188;28;20259;-69
2022/01/12 02:40:58;;;;;;;0.70;0.70;;;-4.10;95.20;;;;;;4996609;28;20259;-69
2022/01/12 02:53:50;;;;;;;0.65;0.65;;;-4.10;95.40;;;;;;4996224;28;20180;-69
2022/01/12 02:56:29;;;;;;;0.63;0.63;;;-4.10;95.20;;;;;;4995578;28;20199;-70
2022/01/12 02:58:59;;;;;;;0.55;0.55;;;-4.10;95.20;;;;;;4995859;28;20196;-69
2022/01/12 03:03:58;;;;;;;0.70;0.70;;;-4.20;95.00;;;;;;4995459;28;20302;-69
2022/01/12 03:06:33;;;;;;;0.65;0.65;;;-4.30;94.70;;;;;;4994522;28;20188;-70
2022/01/12 03:08:59;;;;;;;0.80;0.80;;;-4.40;94.60;;;;;;4995656;28;20495;-69
2022/01/12 03:11:27;;;;;;;0.80;0.80;;;-4.60;94.80;;;;;;4995789;28;20181;-69
2022/01/12 03:13:53;;;;;;;0.60;0.60;;;-4.60;94.90;;;;;;4994330;28;20267;-69
2022/01/12 03:16:24;;;;;;;0.65;0.65;;;-4.50;94.90;;;;;;4993921;28;20684;-69
2022/01/12 03:18:55;;;;;;;0.73;0.73;;;-4.50;94.70;;;;;;4995586;28;20164;-69
2022/01/12 03:21:23;;;;;;;0.63;0.63;;;-4.60;94.60;;;;;;4995407;28;20176;-69
2022/01/12 03:23:50;;;;;;;0.75;0.75;;;-4.60;94.70;;;;;;4995322;28;20207;-69
2022/01/12 03:26:16;;;;;;;0.50;0.50;;;-4.60;94.60;;;;;;4994960;28;20210;-70
2022/01/12 03:28:43;;;;;;;0.50;0.50;;;-4.70;94.70;;;;;;4995402;28;20259;-69
2022/01/12 03:31:21;;;;;;;0.60;0.60;;;-4.70;94.50;;;;;;4995201;28;20771;-69
2022/01/12 03:39:02;;;;;;;0.70;0.70;;;-4.80;94.40;;;;;;4995274;28;20645;-69
2022/01/12 03:41:30;;;;;;;0.60;0.60;;;-4.90;93.90;;;;;;4994975;28;20351;-69
2022/01/12 03:43:58;;;;;;;0.70;0.70;;;-5.20;93.60;;;;;;4994907;28;20208;-69
2022/01/12 03:46:25;;;;;;;0.73;0.73;;;-5.30;93.90;;;;;;4994819;28;20627;-69
2022/01/12 03:48:51;;;;;;;0.70;0.70;;;-5.30;94.10;;;;;;4994875;28;20266;-69
2022/01/12 03:51:17;;;;;;;0.50;0.50;;;-5.20;94.10;;;;;;4994913;28;20654;-69
2022/01/12 03:53:43;;;;;;;0.70;0.70;;;-5.20;93.80;;;;;;4994712;28;20177;-69
2022/01/12 03:56:08;;;;;;;0.60;0.60;;;-5.20;93.60;;;;;;4994444;28;20594;-69
2022/01/12 03:58:34;;;;;;;0.83;0.83;;;-5.30;93.70;;;;;;4994824;28;20184;-69
2022/01/12 04:01:00;;;;;;;0.80;0.80;;;-5.30;93.70;;;;;;4994840;28;20207;-69
2022/01/12 04:03:27;;;;;;;0.53;0.53;;;-5.30;93.80;;;;;;4994497;28;20561;-69
2022/01/12 04:08:38;;;;;;;0.70;0.70;;;-5.30;93.90;;;;;;4994519;28;20170;-69
2022/01/12 04:11:04;;;;;;;0.90;0.90;;;-5.30;93.80;;;;;;4994700;28;20172;-69
2022/01/12 04:13:31;;;;;;;1.00;1.00;;;-5.30;93.60;;;;;;4994505;28;20195;-69
2022/01/12 04:16:05;;;;;;;0.85;0.85;;;-5.30;93.30;;;;;;4994353;28;20176;-69
2022/01/12 04:18:32;;;;;;;0.85;0.85;;;-5.40;93.30;;;;;;4992987;28;20206;-69
2022/01/12 04:21:01;;;;;;;0.90;0.90;;;-5.40;93.10;;;;;;4994340;28;20176;-69
2022/01/12 04:23:27;;;;;;;0.65;0.65;;;-5.50;93.10;;;;;;4994268;28;20200;-69
2022/01/12 04:25:58;;;;;;;0.60;0.60;;;-5.50;93.00;;;;;;4994036;28;20178;-69
2022/01/12 04:28:26;;;;;;;0.90;0.90;;;-5.50;92.90;;;;;;4994270;28;20172;-69
2022/01/12 04:30:54;;;;;;;0.80;0.80;;;-5.60;92.80;;;;;;4994347;28;20196;-69
2022/01/12 04:33:21;;;;;;;0.68;0.68;;;-5.60;92.80;;;;;;4994143;28;20534;-69
2022/01/12 04:35:51;;;;;;;0.82;0.82;;;-5.60;92.90;;;;;;4993987;28;20176;-69
2022/01/12 04:38:18;;;;;;;0.90;0.90;;;-5.60;93.20;;;;;;4994285;28;20519;-69
2022/01/12 04:40:46;;;;;;;0.70;0.70;;;-5.60;93.30;;;;;;4994306;28;20172;-69
2022/01/12 04:43:12;;;;;;;0.50;0.50;;;-5.60;93.20;;;;;;4993947;28;20195;-70
2022/01/12 04:45:56;;;;;;;0.70;0.70;;;-5.60;93.00;;;;;;4993994;28;20200;-69
2022/01/12 04:50:53;;;;;;;0.70;0.70;;;-5.70;92.70;;;;;;4994162;28;20172;-70
2022/01/12 04:53:20;;;;;;;0.70;0.70;;;-5.70;92.60;;;;;;4992825;28;20263;-69
2022/01/12 04:55:47;;;;;;;0.60;0.60;;;-5.80;92.30;;;;;;4993855;28;20188;-69
2022/01/12 04:58:14;;;;;;;0.60;0.60;;;-5.90;92.30;;;;;;4993850;28;20200;-69
2022/01/12 05:00:43;;;;;;;0.60;0.60;;;-5.90;92.50;;;;;;4993901;28;20183;-69
2022/01/12 05:13:52;;;;;;;0.60;0.60;;;-6.00;92.60;;;;;;4994245;28;20230;-69
2022/01/12 05:16:19;;;;;;;0.60;0.60;;;-6.00;92.80;;;;;;4993707;28;20196;-69
2022/01/12 05:18:47;;;;;;;0.70;0.70;;;-6.00;92.80;;;;;;4993640;28;20212;-69
2022/01/12 05:21:14;;;;;;;0.70;0.70;;;-6.00;92.60;;;;;;4993564;28;20172;-69
2022/01/12 05:23:40;;;;;;;0.73;0.73;;;-6.10;92.40;;;;;;4992386;28;20216;-69
2022/01/12 05:26:06;;;;;;;0.55;0.55;;;-6.10;92.60;;;;;;4993618;28;20219;-69
2022/01/12 05:28:33;;;;;;;0.65;0.65;;;-6.10;92.90;;;;;;4991774;28;20238;-69
2022/01/12 05:31:00;;;;;;;0.50;0.50;;;-6.00;93.00;;;;;;4997326;28;20182;-71
2022/01/12 05:33:26;;;;;;;0.50;0.50;;;-6.00;92.90;;;;;;4996193;28;20194;-70
2022/01/12 05:35:53;;;;;;;0.70;0.70;;;-6.00;92.60;;;;;;4993990;28;20263;-70
2022/01/12 05:38:19;;;;;;;0.73;0.73;;;-6.10;92.30;;;;;;4997003;28;20170;-70
2022/01/12 05:40:49;;;;;;;0.60;0.60;;;-6.10;92.20;;;;;;4996190;28;20255;-70
2022/01/12 05:43:20;;;;;;;0.80;0.80;;;-6.10;92.10;;;;;;4997204;28;20214;-70
2022/01/12 05:45:46;;;;;;;0.60;0.60;;;-6.20;92.10;;;;;;4997167;28;20272;-70
2022/01/12 05:50:41;;;;;;;0.52;0.52;;;-6.30;92.20;;;;;;4997048;28;20246;-70
2022/01/12 05:53:08;;;;;;;0.47;0.47;;;-6.30;92.30;;;;;;4997094;28;20594;-70
2022/01/12 05:55:34;;;;;;;0.50;0.50;;;-6.20;92.30;;;;;;4997096;28;20172;-70
2022/01/12 05:57:59;;;;;;;0.70;0.70;;;-6.20;92.40;;;;;;4996860;28;20199;-70
2022/01/12 06:00:27;;;;;;;0.60;0.60;;;-6.20;92.50;;;;;;4997034;28;20675;-70
2022/01/12 06:02:53;;;;;;;0.70;0.70;;;-6.10;92.80;;;;;;4996659;28;20349;-70
2022/01/12 06:05:21;;;;;;;0.57;0.57;;;-6.10;92.60;;;;;;4996776;28;20525;-70
2022/01/12 06:07:48;;;;;;;0.68;0.68;;;-6.10;92.20;;;;;;4995400;28;20254;-69
2022/01/12 06:10:15;;;;;;;0.50;0.50;;;-6.20;92.10;;;;;;4996659;28;20199;-70
2022/01/12 06:12:41;;;;;;;0.60;0.60;;;-6.30;92.00;;;;;;4996862;28;20180;-70
2022/01/12 06:15:07;;;;;;;0.60;0.60;;;-6.30;92.20;;;;;;4996760;28;20182;-70
2022/01/12 06:17:33;;;;;;;0.50;0.50;;;-6.30;92.40;;;;;;4996414;28;20566;-70
2022/01/12 06:19:59;;;;;;;0.57;0.57;;;-6.30;92.30;;;;;;4996434;28;20179;-70
2022/01/12 06:22:25;;;;;;;0.57;0.57;;;-6.30;92.00;;;;;;4996708;28;20180;-70
2022/01/12 06:24:51;;;;;;;0.80;0.80;;;-6.30;91.80;;;;;;4996543;28;20407;-70
2022/01/12 06:27:20;;;;;;;0.50;0.50;;;-6.40;91.70;;;;;;4996221;28;20568;-70
2022/01/12 06:31:10;;;;;;;0.50;0.50;;;-6.40;91.60;;;;;;4996270;28;20177;-70
2022/01/12 06:32:50;;;;;;;0.70;0.70;;;-6.50;91.60;;;;;;4996203;28;20180;-70
2022/01/12 06:35:16;;;;;;;0.70;0.70;;;-6.50;91.80;;;;;;4996260;28;20669;-70
2022/01/12 06:37:41;;;;;;;0.70;0.70;;;-6.50;92.20;;;;;;4996212;28;20431;-70
2022/01/12 06:40:08;;;;;;;0.60;0.60;;;-6.50;92.50;;;;;;4995132;28;20255;-70
2022/01/12 06:42:33;;;;;;;0.52;0.52;;;-6.40;92.50;;;;;;4996235;28;20223;-70
2022/01/12 06:44:59;;;;;;;0.47;0.47;;;-6.40;92.60;;;;;;4996141;28;20626;-70
2022/01/12 06:47:25;;;;;;;0.60;0.60;;;-6.50;92.10;;;;;;4995850;28;20189;-70
2022/01/12 06:49:50;;;;;;;0.60;0.60;;;-6.50;92.20;;;;;;4996058;28;20416;-70
2022/01/12 06:52:16;;;;;;;0.73;0.73;;;-6.50;91.90;;;;;;4995903;28;20196;-70
2022/01/12 06:54:41;;;;;;;0.60;0.60;;;-6.50;91.60;;;;;;4996035;28;20168;-70
2022/01/12 06:57:07;;;;;;;0.70;0.70;;;-6.50;91.50;;;;;;4995654;28;20255;-70
2022/01/12 06:59:33;;;;;;;0.60;0.60;;;-6.60;91.50;;;;;;4995830;28;20527;-70
2022/01/12 07:01:58;;;;;;;0.50;0.50;;;-6.60;91.50;;;;;;4995856;28;20169;-70
2022/01/12 07:04:25;;;;;;;0.50;0.50;;;-6.60;91.50;;;;;;4995703;28;20298;-70
2022/01/12 07:06:50;;;;;;;0.60;0.60;;;-6.60;91.40;;;;;;4995417;28;20187;-70
2022/01/12 07:09:16;;;;;;;0.55;0.55;;;-6.70;91.40;;;;;;4995539;28;20630;-70
2022/01/12 07:11:42;;;;;;;0.50;0.50;;;-6.70;91.60;;;;;;4995997;28;20247;-70
2022/01/12 07:14:08;;;;;;;0.40;0.40;;;-6.60;91.60;;;;;;4995541;28;20745;-70
2022/01/12 07:16:34;;;;;;;0.80;0.80;;;-6.60;92.00;;;;;;4995296;28;20466;-70
2022/01/12 07:18:59;;;;;;;0.60;0.60;;;-6.50;91.70;;;;;;4995449;28;20196;-70
2022/01/12 07:21:26;;;;;;;0.80;0.80;;;-6.50;91.70;;;;;;4995297;28;20180;-70
2022/01/12 07:23:56;;;;;;;0.60;0.60;;;-6.50;91.70;;;;;;4995301;28;20279;-70
2022/01/12 07:26:22;;;;;;;0.70;0.70;;;-6.50;91.80;;;;;;4995034;28;20196;-70
2022/01/12 07:28:48;;;;;;;0.60;0.60;;;-6.50;91.70;;;;;;4995371;28;20168;-70
2022/01/12 07:31:14;;;;;;;0.50;0.50;;;-6.50;91.60;;;;;;4995353;28;20668;-70
2022/01/12 07:33:40;;;;;;;0.60;0.60;;;-6.50;91.60;;;;;;4995249;28;20184;-70
2022/01/12 07:36:06;;;;;;;0.53;0.53;;;-6.50;91.80;;;;;;4994957;28;20189;-70
2022/01/12 07:38:31;;;;;;;0.70;0.70;;;-6.40;91.70;;;;;;4994980;28;20411;-70
2022/01/12 07:40:57;;;;;;;0.67;0.67;;;-6.30;91.40;;;;;;4995225;28;20183;-70
2022/01/12 07:43:23;;;;;;;0.50;0.50;;;-6.30;91.20;;;;;;4994887;28;20487;-70
2022/01/12 07:45:48;;;;;;;0.57;0.57;;;-6.40;91.00;;;;;;4994811;28;20219;-70
2022/01/12 07:48:14;;;;;;;0.70;0.70;;;-6.40;91.10;;;;;;4994790;28;20275;-70
2022/01/12 07:50:40;;;;;;;0.63;0.63;;;-6.30;91.20;;;;;;4995043;28;20638;-70
2022/01/12 07:53:06;;;;;;;0.68;0.68;;;-6.30;91.20;;;;;;4995052;28;20423;-70
2022/01/12 07:55:32;;;;;;;0.50;0.50;;;-6.20;91.00;;;;;;4994561;28;20176;-70
2022/01/12 07:57:58;;;;;;;0.50;0.50;;;-6.20;91.10;;;;;;4994716;28;20267;-70
2022/01/12 08:00:24;;;;;;;0.60;0.60;;;-6.10;91.20;;;;;;4993472;28;20176;-70
2022/01/12 08:02:50;;;;;;;0.73;0.73;;;-6.10;91.30;;;;;;4994419;28;20208;-70
2022/01/12 08:05:17;;;;;;;0.60;0.60;;;-5.90;91.40;;;;;;4994802;28;20408;-70
2022/01/12 08:07:43;;;;;;;0.70;0.70;;;-5.90;91.30;;;;;;4994287;28;20188;-70
2022/01/12 08:10:09;;;;;;;0.50;0.50;;;-5.90;90.80;;;;;;4994499;28;20183;-70
2022/01/12 08:12:37;;;;;;;0.70;0.70;;;-5.90;90.40;;;;;;4994458;28;20482;-70
2022/01/12 08:15:07;;;;;;;0.85;0.85;;;-5.90;90.50;;;;;;4994534;28;20617;-69
2022/01/12 08:17:33;;;;;;;0.73;0.73;;;-5.50;92.10;;;;;;4994240;28;20227;-70
2022/01/12 08:20:00;;;;;;;0.50;0.50;;;-4.50;95.00;;;;;;4994324;28;20172;-70
2022/01/12 08:22:27;;;;;;;0.60;0.60;;;-3.50;93.10;;;;;;4994428;28;20172;-70
2022/01/12 08:24:52;;;;;;;0.65;0.65;;;-2.70;91.50;;;;;;4994297;28;20172;-70
2022/01/12 08:27:18;;;;;;;0.50;0.50;;;-2.00;91.00;;;;;;4994079;28;20254;-70
2022/01/12 08:29:44;;;;;;;0.60;0.60;;;-1.40;90.70;;;;;;4994375;28;20255;-70
2022/01/12 08:32:09;;;;;;;0.60;0.60;;;-0.30;86.50;;;;;;4994392;28;20168;-71
2022/01/12 08:34:35;;;;;;;0.40;0.40;;;0.50;82.10;;;;;;4994282;28;20181;-70
2022/01/12 08:37:01;;;;;;;0.40;0.40;;;0.90;79.60;;;;;;4994127;28;20465;-70
2022/01/12 08:39:27;;;;;;;0.40;0.40;;;1.50;73.20;;;;;;4992879;28;20422;-70
2022/01/12 08:41:52;;;;;;;0.40;0.40;;;1.90;67.90;;;;;;4994289;28;20259;-70
2022/01/12 08:44:18;;;;;;;0.40;0.40;;;1.70;65.00;;;;;;4994150;28;20211;-70
2022/01/12 08:46:44;;;;;;;0.40;0.40;;;1.20;66.90;;;;;;4993908;28;20559;-70
2022/01/12 08:49:09;;;;;;;0.40;0.40;;;1.00;68.70;;;;;;4993918;28;20169;-70
2022/01/12 08:51:36;;;;;;;0.30;0.30;;;1.00;70.20;;;;;;4994036;28;20638;-70
2022/01/12 08:54:02;;;;;;;0.40;0.40;;;2.30;66.80;;;;;;4993998;28;20207;-71
2022/01/12 08:56:28;;;;;;;0.30;0.30;;;3.30;62.60;;;;;;4993807;28;20254;-70
2022/01/12 08:58:53;;;;;;;0.30;0.30;;;3.60;59.60;;;;;;4994085;28;20181;-71
2022/01/12 09:01:19;;;;;;;0.93;0.93;;;4.20;59.10;;;;;;4994083;28;20169;-70
2022/01/12 09:03:45;;;;;;;0.30;0.30;;;5.30;56.00;;;;;;4994452;28;20627;-71
2022/01/12 09:06:11;;;;;;;0.40;0.40;;;6.30;53.30;;;;;;4997672;28;20215;-71
2022/01/12 09:08:38;;;;;;;0.30;0.30;;;6.50;50.50;;;;;;4997838;28;20262;-70
2022/01/12 09:11:04;;;;;;;0.30;0.30;;;6.40;50.30;;;;;;4997867;28;20168;-70
2022/01/12 09:13:30;;;;;;;0.40;0.40;;;6.70;49.60;;;;;;4997960;28;20255;-71
2022/01/12 09:15:56;;;;;;;2.57;2.47;;;7.20;48.20;;;;;;4997742;28;20212;-70
2022/01/12 09:18:22;;;;;;;1.73;1.63;;;7.50;46.20;;;;;;4997611;28;20411;-71
2022/01/12 09:20:49;;;;;;;1.00;1.00;;;7.60;44.70;;;;;;4997528;28;20965;-71
2022/01/12 09:23:15;;;;;;;1.25;1.25;;;7.70;45.40;;;;;;4997733;28;20203;-71
2022/01/12 09:25:41;;;;;;;1.20;1.13;;;8.20;44.00;;;;;;4997359;28;20184;-70
2022/01/12 09:28:08;;;;;;;0.40;0.40;;;8.50;43.40;;;;;;4997402;28;20199;-70
2022/01/12 09:30:34;;;;;;;0.40;0.40;;;8.60;42.80;;;;;;4997442;28;20251;-71
2022/01/12 09:32:59;;;;;;;0.50;0.50;;;9.10;42.30;;;;;;4997496;28;20252;-71
2022/01/12 09:35:26;;;;;;;1.27;1.17;;;9.60;40.60;;;;;;4997218;28;20398;-71
2022/01/12 09:37:52;;;;;;;1.02;1.02;;;10.10;39.20;;;;;;4997381;28;20605;-71
2022/01/12 09:40:18;;;;;;;0.50;0.50;;;10.50;38.60;;;;;;4996121;28;20278;-71
2022/01/12 09:42:46;;;;;;;0.40;0.40;;;10.80;38.90;;;;;;4997283;28;20199;-71
2022/01/12 09:45:15;;;;;;;0.40;0.40;;;11.00;37.60;;;;;;4997492;28;20172;-71
2022/01/12 09:47:42;;;;;;;1.25;1.20;;;10.90;38.40;;;;;;4995811;28;20198;-71
2022/01/12 09:50:09;;;;;;;0.82;0.82;;;11.10;37.60;;;;;;4997097;28;20546;-71
2022/01/12 09:52:35;;;;;;;0.40;0.40;;;11.80;37.30;;;;;;4997026;28;20183;-71
2022/01/12 09:55:01;;;;;;;0.60;0.60;;;12.40;35.90;;;;;;4996950;28;20180;-71
2022/01/12 09:57:27;;;;;;;0.70;0.70;;;12.80;35.60;;;;;;4996864;28;20412;-69
2022/01/12 09:59:52;;;;;;;3.10;2.83;;;12.90;34.30;;;;;;4997392;28;20172;-70
2022/01/12 10:02:20;;;;;;;0.30;0.30;;;12.70;34.30;;;;;;4996933;28;20168;-69
2022/01/12 10:04:45;;;;;;;0.30;0.30;;;12.00;35.10;;;;;;4997011;28;20171;-70
2022/01/12 10:07:14;;;;;;;3.70;3.50;;;11.30;36.30;;;;;;4997048;28;20785;-70
2022/01/12 10:09:45;;;;;;;0.35;0.35;;;10.90;37.60;;;;;;4997141;28;20161;-70
2022/01/12 10:12:18;;;;;;;1.45;1.45;;;10.70;38.60;;;;;;4995720;28;20172;-70
2022/01/12 10:14:52;;;;;;;0.95;0.95;;;10.60;38.50;;;;;;4996693;28;20179;-70
2022/01/12 10:17:50;;;;;;;0.40;0.40;;;11.40;38.70;;;;;;4995323;28;20710;-72
2022/01/12 10:20:18;;;;;;;0.30;0.30;;;11.90;37.20;;;;;;4984889;28;20192;-75
2022/01/12 10:22:56;;;;;;;0.40;0.40;;;12.10;36.70;;;;;;4996694;28;20240;-72
2022/01/12 10:25:22;;;;;;;0.40;0.40;;;12.40;36.40;;;;;;4995180;28;20168;-74
2022/01/12 10:27:49;;;;;;;0.40;0.40;;;12.70;36.20;;;;;;4995488;28;20573;-70
2022/01/12 10:30:23;;;;;;;0.30;0.30;;;12.80;36.60;;;;;;4993878;28;20241;-72
2022/01/12 10:33:07;;;;;;;0.38;0.38;;;12.70;36.70;;;;;;4996700;28;20286;-75
2022/01/12 10:35:41;;;;;;;1.45;1.35;;;12.40;37.70;;;;;;4996801;28;20528;-78
2022/01/12 10:38:14;;;;;;;0.40;0.40;;;12.00;38.70;;;;;;4995188;28;20199;-72
2022/01/12 10:40:46;;;;;;;0.30;0.30;;;11.90;38.40;;;;;;4996618;28;20215;-72
2022/01/12 10:43:33;;;;;;;0.30;0.30;;;11.90;38.40;;;;;;4994698;28;20196;-73
2022/01/12 10:46:02;;;;;;;0.35;0.35;;;12.30;38.30;;;;;;4995945;28;20194;-72
2022/01/12 10:48:40;;;;;;;0.30;0.30;;;12.30;38.20;;;;;;4996215;28;20264;-73
2022/01/12 10:51:06;;;;;;;0.40;0.40;;;12.30;39.20;;;;;;4996065;28;20172;-70
2022/01/12 10:53:34;;;;;;;0.30;0.30;;;12.10;39.70;;;;;;4996381;28;20172;-70
2022/01/12 10:56:23;;;;;;;0.70;0.70;;;11.50;40.20;;;;;;4996076;28;20403;-70
2022/01/12 10:58:50;;;;;;;0.30;0.30;;;10.80;40.60;;;;;;4993299;28;20194;-71
2022/01/12 11:01:19;;;;;;;0.63;0.63;;;10.20;42.40;;;;;;4996074;28;20180;-68
2022/01/12 11:03:46;;;;;;;0.30;0.30;;;10.00;43.80;;;;;;4995944;28;20403;-69
2022/01/12 11:06:12;;;;;;;0.40;0.40;;;9.90;45.50;;;;;;4995720;28;20669;-68
2022/01/12 11:08:39;;;;;;;0.30;0.30;;;9.20;46.10;;;;;;4995120;28;20542;-68
2022/01/12 11:11:06;;;;;;;0.40;0.40;;;8.50;47.60;;;;;;4996081;28;20175;-69
2022/01/12 11:13:34;;;;;;;0.30;0.30;;;8.00;48.60;;;;;;4996015;28;20174;-69
2022/01/12 11:16:00;;;;;;;0.40;0.40;;;7.50;50.70;;;;;;4995331;28;20548;-69
2022/01/12 11:18:29;;;;;;;0.40;0.40;;;7.20;51.50;;;;;;4995690;28;20178;-68
2022/01/12 11:21:18;;;;;;;0.38;0.38;;;6.90;51.90;;;;;;4995872;28;20407;-67
2022/01/12 11:23:44;;;;;;;0.40;0.40;;;6.70;53.20;;;;;;4995847;28;20204;-68
2022/01/12 11:26:27;;;;;;;0.40;0.40;;;6.30;54.80;;;;;;4993207;28;20338;-67
2022/01/12 11:28:54;;;;;;;0.40;0.40;;;6.30;55.60;;;;;;4995411;28;20876;-67
2022/01/12 11:31:32;;;;;;;0.40;0.40;;;5.90;56.20;;;;;;4995748;28;20171;-68
2022/01/12 11:33:59;;;;;;;0.40;0.40;;;5.70;57.00;;;;;;4995880;28;20179;-67
2022/01/12 11:36:36;;;;;;;0.40;0.40;;;5.80;57.40;;;;;;4995017;28;20196;-66
2022/01/12 11:39:08;;;;;;;0.40;0.40;;;6.10;58.10;;;;;;4995853;28;20218;-67
2022/01/12 11:41:36;;;;;;;0.40;0.40;;;6.20;57.70;;;;;;4995512;28;20172;-67
2022/01/12 11:44:04;;;;;;;0.40;0.40;;;6.20;57.90;;;;;;4995502;28;20674;-68
2022/01/12 11:46:50;;;;;;;0.30;0.30;;;6.20;57.60;;;;;;4994699;28;20713;-68
2022/01/12 11:49:31;;;;;;;0.30;0.30;;;6.10;57.90;;;;;;4995100;28;20172;-68
2022/01/12 11:51:59;;;;;;;0.40;0.40;;;5.80;58.20;;;;;;4995362;28;20175;-68
2022/01/12 11:54:36;;;;;;;0.40;0.40;;;5.70;59.80;;;;;;4995470;28;20239;-68
2022/01/12 11:57:07;;;;;;;0.40;0.40;;;5.50;60.00;;;;;;4994686;28;20270;-67
2022/01/12 11:59:57;;;;;;;0.40;0.40;;;5.40;60.90;;;;;;4995006;28;20607;-68
2022/01/12 12:02:37;;;;;;;0.30;0.30;;;4.80;61.80;;;;;;4993402;28;20187;-69
2022/01/12 12:05:12;;;;;;;0.30;0.30;;;4.50;63.90;;;;;;4995155;28;20508;-68
2022/01/12 12:07:51;;;;;;;0.30;0.30;;;4.10;65.60;;;;;;4994512;28;20710;-68
2022/01/12 12:10:22;;;;;;;0.40;0.40;;;3.80;67.00;;;;;;4994517;28;20181;-68
2022/01/12 12:12:50;;;;;;;0.40;0.40;;;3.60;68.90;;;;;;4995014;28;20524;-69
2022/01/12 12:15:16;;;;;;;0.40;0.40;;;3.50;70.70;;;;;;4994980;28;20182;-68
2022/01/12 12:17:43;;;;;;;0.30;0.30;;;3.40;72.50;;;;;;4994200;28;20277;-69
2022/01/12 12:20:14;;;;;;;0.40;0.40;;;3.40;73.90;;;;;;4994402;28;20922;-69
2022/01/12 12:22:42;;;;;;;0.38;0.38;;;3.30;75.00;;;;;;4994561;28;20244;-68
2022/01/12 12:25:17;;;;;;;0.30;0.30;;;3.10;75.70;;;;;;4994630;28;20162;-68
2022/01/12 12:27:45;;;;;;;0.40;0.40;;;2.90;76.60;;;;;;4994622;28;20185;-69
2022/01/12 12:30:14;;;;;;;0.30;0.30;;;2.70;78.90;;;;;;4994371;28;20166;-69
2022/01/12 12:32:55;;;;;;;0.40;0.40;;;2.50;81.20;;;;;;4994148;28;20186;-68
2022/01/12 12:35:28;;;;;;;0.30;0.30;;;2.50;83.60;;;;;;4994494;28;20316;-69
2022/01/12 12:38:00;;;;;;;0.40;0.40;;;2.40;84.90;;;;;;4994624;28;20542;-69
2022/01/12 12:40:30;;;;;;;0.30;0.30;;;2.40;86.60;;;;;;4994867;28;20539;-69
2022/01/12 12:43:12;;;;;;;0.30;0.30;;;2.30;87.50;;;;;;4994496;28;20300;-68
2022/01/12 12:45:46;;;;;;;0.30;0.30;;;2.30;88.10;;;;;;4992736;28;20177;-67
2022/01/12 12:48:15;;;;;;;0.40;0.40;;;2.20;89.10;;;;;;4992974;28;20197;-68
2022/01/12 12:50:42;;;;;;;0.30;0.30;;;2.20;89.70;;;;;;4992940;28;20178;-68
2022/01/12 12:53:07;;;;;;;0.30;0.30;;;2.10;90.30;;;;;;4993923;28;20177;-68
2022/01/12 12:55:38;;;;;;;0.30;0.30;;;2.10;90.60;;;;;;4993878;28;20173;-68
2022/01/12 12:58:05;;;;;;;0.40;0.40;;;2.10;90.90;;;;;;4994047;28;20209;-68
2022/01/12 13:00:32;;;;;;;4.00;2.25;;;2.00;91.30;;;;;;4994318;28;20181;-69
2022/01/12 13:03:05;;;;;;;0.32;0.32;;;2.00;91.70;;;;;;4993766;28;20198;-68
2022/01/12 13:05:36;;;;;;;0.40;0.40;;;2.00;91.80;;;;;;4992603;28;20181;-68
2022/01/12 13:08:06;;;;;;;0.30;0.30;;;1.90;91.80;;;;;;4993410;28;20204;-68
2022/01/12 13:10:39;;;;;;;0.40;0.40;;;1.90;91.40;;;;;;4993742;28;20252;-68
2022/01/12 13:13:10;;;;;;;0.30;0.30;;;1.70;91.70;;;;;;4993994;28;20337;-68
2022/01/12 13:15:45;;;;;;;0.30;0.30;;;1.60;92.60;;;;;;4993815;28;20272;-69
2022/01/12 13:18:15;;;;;;;0.30;0.30;;;1.60;92.70;;;;;;4992330;28;20282;-68
2022/01/12 13:21:09;;;;;;;0.40;0.40;;;1.60;93.30;;;;;;4992702;28;20276;-68
2022/01/12 13:23:44;;;;;;;0.30;0.30;;;1.80;93.60;;;;;;4992675;28;20330;-68
2022/01/12 13:26:14;;;;;;;0.30;0.30;;;1.80;92.90;;;;;;4993467;28;20255;-68
2022/01/12 13:28:47;;;;;;;0.30;0.30;;;1.90;93.10;;;;;;4994185;28;20173;-68
2022/01/12 13:31:17;;;;;;;0.30;0.30;;;1.90;92.70;;;;;;4994124;28;20563;-68
2022/01/12 13:33:49;;;;;;;0.30;0.30;;;1.90;92.50;;;;;;4993889;28;20568;-68
2022/01/12 13:36:26;;;;;;;0.30;0.30;;;2.00;92.60;;;;;;4993678;28;20658;-68
2022/01/12 13:38:57;;;;;;;0.40;0.40;;;2.00;92.40;;;;;;4993542;28;20620;-68
2022/01/12 13:41:29;;;;;;;0.30;0.30;;;2.00;92.40;;;;;;4992316;28;20545;-68
2022/01/12 13:44:04;;;;;;;0.30;0.30;;;2.00;92.70;;;;;;4993133;28;20327;-68
2022/01/12 13:47:03;;;;;;;0.30;0.30;;;2.00;92.60;;;;;;4992276;28;20187;-68
2022/01/12 13:49:29;;;;;;;0.38;0.38;;;1.90;92.60;;;;;;4992585;28;20173;-68
2022/01/12 13:51:59;;;;;;;0.30;0.30;;;1.90;92.80;;;;;;4996931;28;20570;-68
2022/01/12 13:54:31;;;;;;;0.40;0.40;;;1.90;92.80;;;;;;4997080;28;20206;-68
2022/01/12 13:56:58;;;;;;;0.30;0.30;;;1.90;92.60;;;;;;4996688;28;20193;-69
2022/01/12 13:59:28;;;;;;;0.30;0.30;;;1.90;92.60;;;;;;4996976;28;20173;-69
2022/01/12 14:01:54;;;;;;;0.40;0.40;;;1.80;92.50;;;;;;4996960;28;20186;-68
2022/01/12 14:04:47;;;;;;;0.30;0.30;;;1.70;92.70;;;;;;4996720;28;20201;-68
2022/01/12 14:07:29;;;;;;;0.40;0.40;;;1.60;93.10;;;;;;4996711;28;20185;-69
2022/01/12 14:09:56;;;;;;;0.30;0.30;;;1.70;93.10;;;;;;4995503;28;20642;-68
2022/01/12 14:12:26;;;;;;;0.30;0.30;;;1.60;93.20;;;;;;4997114;28;20177;-68
2022/01/12 14:14:58;;;;;;;0.40;0.40;;;1.60;93.30;;;;;;4996747;28;20640;-68